Time;durP1;ratioP1;P1;durP2;ratioP2;P2;SDS_P1;SDS_P2;PMS_P1;PMS_P2;Temp;Humidity;BMP_temperature;BMP_pressure;BME280_temperature;BME280_humidity;BME280_pressure;Samples;Min_cycle;Max_cycle;Signal;HPM_P1;HPM_P2
2021/05/03 00:00:00;;;;;;;;;;;;;;;18.46;66.68;100181.50;4995593;28;1977;-55
2021/05/03 00:02:26;;;;;;;;;;;;;;;18.52;66.93;100185.41;4995806;28;1392;-56
2021/05/03 00:04:52;;;;;;;;;;;;;;;18.51;66.50;100194.44;4995598;28;1094;-55
2021/05/03 00:07:18;;;;;;;;;;;;;;;18.51;66.79;100193.59;4995467;28;1122;-55
2021/05/03 00:09:45;;;;;;;;;;;;;;;18.49;66.55;100191.06;4995480;28;1288;-55
2021/05/03 00:12:11;;;;;;;;;;;;;;;18.53;66.41;100200.50;4995405;28;1217;-55
2021/05/03 00:14:37;;;;;;;;;;;;;;;18.53;66.54;100195.13;4995791;28;996;-55
2021/05/03 00:17:03;;;;;;;;;;;;;;;18.51;66.58;100194.44;4995385;28;1119;-55
2021/05/03 00:19:29;;;;;;;;;;;;;;;18.51;66.57;100199.81;4995568;28;1906;-55
2021/05/03 00:21:55;;;;;;;;;;;;;;;18.52;66.62;100203.31;4995357;28;1209;-56
2021/05/03 00:24:21;;;;;;;;;;;;;;;18.51;66.35;100198.97;4995668;28;983;-56
2021/05/03 00:26:48;;;;;;;;;;;;;;;18.51;66.44;100205.16;4995624;28;979;-55
2021/05/03 00:29:14;;;;;;;;;;;;;;;18.50;66.56;100206.13;4995311;28;1027;-56
2021/05/03 00:31:40;;;;;;;;;;;;;;;18.52;66.38;100208.66;4995536;28;1081;-55
2021/05/03 00:34:06;;;;;;;;;;;;;;;18.47;66.55;100214.47;4995593;28;979;-56
2021/05/03 00:36:32;;;;;;;;;;;;;;;18.49;66.96;100193.75;4995182;28;1301;-55
2021/05/03 00:38:58;;;;;;;;;;;;;;;18.48;66.60;100194.72;4995522;28;1074;-55
2021/05/03 00:41:24;;;;;;;;;;;;;;;18.49;66.57;100194.59;4995481;28;1902;-55
2021/05/03 00:43:51;;;;;;;;;;;;;;;18.48;66.56;100184.00;4995292;28;1902;-55
2021/05/03 00:46:19;;;;;;;;;;;;;;;18.49;66.51;100191.06;4995451;28;1072;-55
2021/05/03 00:48:46;;;;;;;;;;;;;;;18.50;66.59;100179.34;4995333;28;1054;-54
2021/05/03 00:51:12;;;;;;;;;;;;;;;18.49;66.75;100191.06;4995400;28;991;-56
2021/05/03 00:53:38;;;;;;;;;;;;;;;18.49;66.46;100196.44;4995374;28;1073;-55
2021/05/03 00:56:04;;;;;;;;;;;;;;;18.50;66.34;100198.09;4995275;28;1138;-55
2021/05/03 00:58:30;;;;;;;;;;;;;;;18.48;66.61;100182.19;4995334;28;976;-55
2021/05/03 01:00:57;;;;;;;;;;;;;;;18.48;66.53;100190.22;4994904;28;1907;-55
2021/05/03 01:03:23;;;;;;;;;;;;;;;18.50;66.59;100203.44;4995178;28;1431;-55
2021/05/03 01:05:49;;;;;;;;;;;;;;;18.51;66.51;100194.44;4995074;28;1883;-56
2021/05/03 01:08:15;;;;;;;;;;;;;;;18.49;66.95;100185.72;4998555;28;1091;-55
2021/05/03 01:10:41;;;;;;;;;;;;;;;18.48;66.54;100192.03;4998933;28;1268;-55
2021/05/03 01:13:07;;;;;;;;;;;;;;;18.49;66.60;100191.91;4999006;28;967;-55
2021/05/03 01:15:33;;;;;;;;;;;;;;;18.48;66.51;100189.38;4998716;28;1055;-55
2021/05/03 01:18:01;;;;;;;;;;;;;;;18.50;66.59;100187.38;4998965;28;999;-55
2021/05/03 01:20:28;;;;;;;;;;;;;;;18.49;66.63;100185.72;4998756;28;1910;-54
2021/05/03 01:22:57;;;;;;;;;;;;;;;18.45;66.57;100178.97;4998889;28;1057;-55
2021/05/03 01:25:25;;;;;;;;;;;;;;;18.51;66.54;100188.25;4998565;28;1276;-55
2021/05/03 01:27:51;;;;;;;;;;;;;;;18.50;66.50;100179.34;4998532;28;1098;-55
2021/05/03 01:30:18;;;;;;;;;;;;;;;18.48;66.56;100179.53;4998695;28;1027;-55
2021/05/03 01:32:44;;;;;;;;;;;;;;;18.50;66.54;100168.66;4998657;28;987;-56
2021/05/03 01:35:13;;;;;;;;;;;;;;;18.50;66.66;100165.97;4998496;28;1892;-55
2021/05/03 01:37:39;;;;;;;;;;;;;;;18.49;66.57;100170.47;4998302;28;1244;-55
2021/05/03 01:40:07;;;;;;;;;;;;;;;18.51;66.44;100178.38;4998085;28;1907;-55
2021/05/03 01:42:34;;;;;;;;;;;;;;;18.51;66.43;100166.84;4998160;28;1028;-55
2021/05/03 01:45:01;;;;;;;;;;;;;;;18.51;66.59;100172.19;4998440;28;990;-55
2021/05/03 01:47:28;;;;;;;;;;;;;;;18.48;66.54;100184.00;4998348;28;1066;-55
2021/05/03 01:49:54;;;;;;;;;;;;;;;18.49;66.45;100175.00;4998297;28;1890;-56
2021/05/03 01:52:20;;;;;;;;;;;;;;;18.50;66.50;100187.38;4998077;28;1052;-55
2021/05/03 01:54:47;;;;;;;;;;;;;;;18.52;66.49;100188.09;4998233;28;1062;-55
2021/05/03 01:57:15;;;;;;;;;;;;;;;18.49;66.07;100186.56;4997818;28;1238;-55
2021/05/03 01:59:42;;;;;;;;;;;;;;;18.51;66.49;100196.28;4997703;28;1914;-55
2021/05/03 02:02:14;;;;;;;;;;;;;;;18.52;66.55;100214.03;5007918;23;2036;-44
2021/05/03 02:04:40;;;;;;;;;;;;;;;18.52;66.44;100217.53;4996867;28;959;-44
2021/05/03 02:07:06;;;;;;;;;;;;;;;18.50;66.60;100227.53;4997038;28;1150;-44
2021/05/03 02:09:32;;;;;;;;;;;;;;;18.53;66.47;100226.44;4996594;28;1094;-44
2021/05/03 02:11:58;;;;;;;;;;;;;;;18.49;66.76;100224.03;4996597;23;3711;-56
2021/05/03 02:14:25;;;;;;;;;;;;;;;18.52;66.45;100225.56;4978266;28;980;-56
2021/05/03 02:16:51;;;;;;;;;;;;;;;18.53;66.33;100237.97;4978459;28;986;-55
2021/05/03 02:19:17;;;;;;;;;;;;;;;18.53;66.72;100240.66;4978161;28;1070;-55
2021/05/03 02:21:43;;;;;;;;;;;;;;;18.50;66.47;100227.53;4977963;28;1902;-55
2021/05/03 02:24:09;;;;;;;;;;;;;;;18.47;66.46;100234.03;4978311;28;1030;-55
2021/05/03 02:26:35;;;;;;;;;;;;;;;18.48;66.40;100230.41;4978309;28;983;-55
2021/05/03 02:29:01;;;;;;;;;;;;;;;18.51;66.46;100237.28;4977843;28;1168;-55
2021/05/03 02:31:28;;;;;;;;;;;;;;;18.51;66.45;100231.94;4978111;28;988;-55
2021/05/03 02:33:54;;;;;;;;;;;;;;;18.50;66.56;100251.66;4978122;28;1035;-55
2021/05/03 02:36:20;;;;;;;;;;;;;;;18.50;66.68;100251.66;4977858;28;1071;-55
2021/05/03 02:38:46;;;;;;;;;;;;;;;18.48;66.58;100253.63;4977672;28;1887;-56
2021/05/03 02:41:12;;;;;;;;;;;;;;;18.49;66.44;100258.84;4977563;28;1903;-55
2021/05/03 02:43:38;;;;;;;;;;;;;;;18.52;66.33;100249.66;4977674;28;1134;-55
2021/05/03 02:46:05;;;;;;;;;;;;;;;18.51;66.57;100260.53;4977798;28;988;-55
2021/05/03 02:48:32;;;;;;;;;;;;;;;18.51;66.55;100253.34;4977566;28;1126;-55
2021/05/03 02:50:58;;;;;;;;;;;;;;;18.48;66.90;100258.97;4977744;28;981;-55
2021/05/03 02:53:24;;;;;;;;;;;;;;;18.50;66.60;100267.72;4977494;28;1126;-55
2021/05/03 02:55:50;;;;;;;;;;;;;;;18.51;66.59;100255.19;4977615;28;1086;-55
2021/05/03 02:58:16;;;;;;;;;;;;;;;18.49;66.36;100266.03;4977680;28;1074;-55
2021/05/03 03:00:42;;;;;;;;;;;;;;;18.50;66.58;100270.38;4977325;28;1906;-55
2021/05/03 03:03:08;;;;;;;;;;;;;;;18.49;66.44;100277.59;4977516;28;1378;-55
2021/05/03 03:05:34;;;;;;;;;;;;;;;18.51;66.54;100292.69;4977605;28;1997;-55
2021/05/03 03:08:01;;;;;;;;;;;;;;;18.49;66.40;100292.81;4977186;28;1122;-55
2021/05/03 03:10:28;;;;;;;;;;;;;;;18.48;66.40;100294.66;4979166;28;1139;-56
2021/05/03 03:12:54;;;;;;;;;;;;;;;18.47;66.63;100297.47;4996808;28;996;-55
2021/05/03 03:15:22;;;;;;;;;;;;;;;18.48;66.87;100302.69;4996438;28;1027;-55
2021/05/03 03:17:48;;;;;;;;;;;;;;;18.50;66.64;100321.25;4996315;28;1253;-55
2021/05/03 03:20:15;;;;;;;;;;;;;;;18.49;66.62;100308.88;4996253;28;1907;-55
2021/05/03 03:22:42;;;;;;;;;;;;;;;18.51;66.36;100331.00;4996687;28;1002;-55
2021/05/03 03:25:08;;;;;;;;;;;;;;;18.48;66.42;100339.31;4996528;28;1890;-54
2021/05/03 03:27:34;;;;;;;;;;;;;;;18.50;66.51;100345.34;4996585;28;1035;-55
2021/05/03 03:30:00;;;;;;;;;;;;;;;18.47;66.53;100337.63;4995844;28;1135;-55
2021/05/03 03:32:26;;;;;;;;;;;;;;;18.50;66.65;100356.06;4996479;28;1229;-55
2021/05/03 03:34:52;;;;;;;;;;;;;;;18.48;66.31;100358.03;4996120;28;1982;-55
2021/05/03 03:37:18;;;;;;;;;;;;;;;18.47;66.58;100353.69;4996430;28;983;-55
2021/05/03 03:39:45;;;;;;;;;;;;;;;18.50;66.70;100364.09;4996220;28;1891;-56
2021/05/03 03:42:11;;;;;;;;;;;;;;;18.49;66.47;100382.00;4996224;28;1058;-55
2021/05/03 03:44:37;;;;;;;;;;;;;;;18.49;66.53;100382.00;4996324;28;1891;-55
2021/05/03 03:47:03;;;;;;;;;;;;;;;18.49;66.33;100373.13;4996053;28;980;-55
2021/05/03 03:49:29;;;;;;;;;;;;;;;18.51;66.47;100386.38;4996222;28;982;-55
2021/05/03 03:51:55;;;;;;;;;;;;;;;18.50;66.36;100374.81;4996135;28;975;-55
2021/05/03 03:54:21;;;;;;;;;;;;;;;18.53;66.54;100393.28;4996132;28;1042;-55
2021/05/03 03:56:48;;;;;;;;;;;;;;;18.57;66.16;100397.38;4996073;28;1063;-56
2021/05/03 03:59:15;;;;;;;;;;;;;;;18.61;66.18;100398.78;4996045;28;967;-56
2021/05/03 04:01:41;;;;;;;;;;;;;;;18.68;66.21;100410.63;4995849;28;1902;-55
2021/05/03 04:04:12;;;;;;;;;;;;;;;18.78;65.61;100431.19;4996386;28;2029;-55
2021/05/03 04:06:43;;;;;;;;;;;;;;;18.89;65.16;100423.03;4995913;28;1018;-55
2021/05/03 04:09:13;;;;;;;;;;;;;;;18.99;64.75;100429.22;4995559;28;1047;-55
2021/05/03 04:23:05;;;;;;;;;;;;;;;19.25;64.27;100440.16;4995439;28;643;-55
2021/05/03 04:25:36;;;;;;;;;;;;;;;19.55;63.24;100450.81;4995391;28;1023;-56
2021/05/03 04:28:02;;;;;;;;;;;;;;;19.96;62.27;100432.59;4995614;28;1066;-56
2021/05/03 04:30:29;;;;;;;;;;;;;;;20.35;61.28;100446.59;4995253;28;1063;-56
2021/05/03 04:32:55;;;;;;;;;;;;;;;21.16;58.24;100447.47;4995516;28;1065;-56
2021/05/03 04:35:21;;;;;;;;;;;;;;;20.51;59.74;100442.38;4996066;28;1995;-55
2021/05/03 04:37:46;;;;;;;;;;;;;;;19.76;62.61;100470.25;4995569;28;982;-56
2021/05/03 04:40:13;;;;;;;;;;;;;;;19.48;62.97;100464.81;4995117;28;1973;-55
2021/05/03 04:42:39;;;;;;;;;;;;;;;19.46;63.63;100464.09;4997990;28;1127;-56
2021/05/03 04:45:05;;;;;;;;;;;;;;;19.63;62.99;100477.72;4999514;28;991;-55
2021/05/03 04:47:32;;;;;;;;;;;;;;;19.36;63.85;100494.59;4999181;28;1064;-56
2021/05/03 04:49:59;;;;;;;;;;;;;;;19.15;64.70;100492.09;4999136;28;1110;-55
2021/05/03 04:52:25;;;;;;;;;;;;;;;19.06;64.33;100488.47;4999170;28;1032;-55
2021/05/03 04:54:51;;;;;;;;;;;;;;;19.04;65.05;100501.16;4999414;28;987;-55
2021/05/03 04:57:17;;;;;;;;;;;;;;;19.05;64.82;100510.88;4999060;28;1106;-56
2021/05/03 04:59:43;;;;;;;;;;;;;;;19.03;64.83;100502.97;4999266;28;1975;-55
2021/05/03 05:02:10;;;;;;;;;;;;;;;18.99;65.03;100514.97;4999192;28;1479;-56
2021/05/03 05:04:37;;;;;;;;;;;;;;;19.02;64.99;100506.66;4998887;28;1111;-56
2021/05/03 05:07:04;;;;;;;;;;;;;;;19.00;64.81;100503.28;4998980;28;1998;-56
2021/05/03 05:09:30;;;;;;;;;;;;;;;19.00;64.77;100511.31;4999094;28;986;-55
2021/05/03 05:11:56;;;;;;;;;;;;;;;19.02;64.97;100519.19;4998139;28;1452;-55
2021/05/03 05:14:22;;;;;;;;;;;;;;;18.99;65.02;100520.31;4998970;28;974;-55
2021/05/03 05:16:48;;;;;;;;;;;;;;;18.98;64.99;100525.81;4998977;28;1083;-56
2021/05/03 05:19:14;;;;;;;;;;;;;;;19.05;65.13;100518.91;4998828;28;1071;-55
2021/05/03 05:21:41;;;;;;;;;;;;;;;18.99;64.91;100508.78;4998708;28;1974;-55
2021/05/03 05:24:08;;;;;;;;;;;;;;;18.95;65.08;100518.91;4998355;28;992;-55
2021/05/03 05:26:34;;;;;;;;;;;;;;;19.00;65.12;100524.72;4998462;28;1066;-55
2021/05/03 05:29:00;;;;;;;;;;;;;;;19.02;64.95;100538.81;4998492;28;1064;-55
2021/05/03 05:31:26;;;;;;;;;;;;;;;19.07;65.04;100543.75;4998325;28;1064;-55
2021/05/03 05:33:52;;;;;;;;;;;;;;;19.14;64.70;100544.88;4998764;28;1083;-55
2021/05/03 05:36:18;;;;;;;;;;;;;;;19.15;64.85;100551.91;4998379;28;1119;-55
2021/05/03 05:38:45;;;;;;;;;;;;;;;19.11;64.70;100528.22;4998523;28;1063;-55
2021/05/03 05:41:13;;;;;;;;;;;;;;;19.12;64.88;100546.00;4998467;28;2048;-55
2021/05/03 05:43:39;;;;;;;;;;;;;;;19.10;64.78;100564.03;4998438;28;1075;-55
2021/05/03 05:46:05;;;;;;;;;;;;;;;19.07;64.69;100567.88;4998180;28;1092;-54
2021/05/03 05:48:32;;;;;;;;;;;;;;;19.10;64.85;100577.44;4998460;28;992;-55
2021/05/03 05:50:58;;;;;;;;;;;;;;;19.13;64.70;100588.75;4998175;28;1996;-55
2021/05/03 05:53:24;;;;;;;;;;;;;;;19.17;64.79;100581.28;4997527;28;1040;-56
2021/05/03 05:55:51;;;;;;;;;;;;;;;19.12;64.73;100583.50;4998303;28;1070;-55
2021/05/03 05:58:17;;;;;;;;;;;;;;;19.14;64.73;100603.84;4998292;28;1046;-56
2021/05/03 06:00:43;;;;;;;;;;;;;;;19.14;64.86;100597.63;4997880;28;1907;-55
2021/05/03 06:03:09;;;;;;;;;;;;;;;19.13;64.70;100593.25;4997728;28;1496;-56
2021/05/03 06:05:35;;;;;;;;;;;;;;;19.17;64.83;100594.66;4998018;28;980;-56
2021/05/03 06:08:01;;;;;;;;;;;;;;;19.16;64.82;100584.91;4998103;28;1078;-56
2021/05/03 06:10:27;;;;;;;;;;;;;;;19.14;65.06;100576.19;4997514;28;1150;-55
2021/05/03 06:12:54;;;;;;;;;;;;;;;19.18;65.08;100593.66;4997950;28;1067;-55
2021/05/03 06:15:20;;;;;;;;;;;;;;;19.18;64.77;100588.31;4997603;28;1211;-56
2021/05/03 06:17:46;;;;;;;;;;;;;;;19.17;64.79;100597.34;4997754;28;1086;-55
2021/05/03 06:20:12;;;;;;;;;;;;;;;19.18;65.13;100605.25;4997540;28;1903;-56
2021/05/03 06:22:38;;;;;;;;;;;;;;;19.15;65.05;100600.16;4997493;28;1111;-56
2021/05/03 06:25:06;;;;;;;;;;;;;;;19.16;64.97;100596.50;4997769;28;984;-55
2021/05/03 06:27:32;;;;;;;;;;;;;;;19.13;65.31;100607.50;4997561;28;1070;-56
2021/05/03 06:29:59;;;;;;;;;;;;;;;19.15;65.09;100629.66;4997385;28;1060;-55
2021/05/03 06:32:26;;;;;;;;;;;;;;;19.17;65.02;100622.31;4997348;28;1052;-56
2021/05/03 06:34:52;;;;;;;;;;;;;;;19.19;64.94;100632.91;4997579;28;971;-55
2021/05/03 06:37:18;;;;;;;;;;;;;;;19.17;64.96;100616.13;4997185;28;1044;-55
2021/05/03 06:39:44;;;;;;;;;;;;;;;19.14;65.00;100613.69;4997172;28;1222;-55
2021/05/03 06:42:10;;;;;;;;;;;;;;;19.19;64.95;100639.09;4997326;28;1902;-55
2021/05/03 06:44:36;;;;;;;;;;;;;;;19.18;65.07;100636.56;4997369;28;1003;-55
2021/05/03 06:47:04;;;;;;;;;;;;;;;19.19;65.13;100654.34;4997351;28;1074;-56
2021/05/03 06:49:30;;;;;;;;;;;;;;;19.20;65.10;100658.72;4997165;28;1969;-55
2021/05/03 06:51:56;;;;;;;;;;;;;;;19.20;65.04;100661.38;4997282;28;980;-56
2021/05/03 06:54:22;;;;;;;;;;;;;;;19.16;64.82;100639.41;4996779;28;1044;-55
2021/05/03 06:56:48;;;;;;;;;;;;;;;19.19;65.13;100638.25;4997154;28;988;-55
2021/05/03 06:59:14;;;;;;;;;;;;;;;19.21;65.15;100655.91;4997148;28;988;-55
2021/05/03 07:01:40;;;;;;;;;;;;;;;19.18;65.11;100666.03;4996995;28;1906;-56
2021/05/03 07:04:07;;;;;;;;;;;;;;;19.19;64.89;100659.72;4995735;28;1434;-56
2021/05/03 07:06:33;;;;;;;;;;;;;;;19.18;65.23;100658.88;4996672;28;1052;-56
2021/05/03 07:08:59;;;;;;;;;;;;;;;19.19;65.18;100649.00;4996906;28;1070;-55
2021/05/03 07:11:28;;;;;;;;;;;;;;;19.18;65.07;100648.16;4996305;28;1238;-57
2021/05/03 07:13:54;;;;;;;;;;;;;;;19.18;65.48;100652.63;4996570;28;1028;-54
2021/05/03 07:16:20;;;;;;;;;;;;;;;19.17;65.59;100641.06;4996781;28;995;-56
2021/05/03 07:18:46;;;;;;;;;;;;;;;19.18;65.21;100644.59;4996361;28;1055;-56
2021/05/03 07:21:13;;;;;;;;;;;;;;;19.17;65.24;100648.28;4996540;28;1977;-56
2021/05/03 07:23:39;;;;;;;;;;;;;;;19.18;65.21;100639.25;4996651;28;957;-55
2021/05/03 07:26:07;;;;;;;;;;;;;;;19.18;65.08;100666.03;4996323;28;1048;-55
2021/05/03 07:28:33;;;;;;;;;;;;;;;19.16;65.32;100655.50;4996244;28;1036;-55
2021/05/03 07:30:59;;;;;;;;;;;;;;;19.16;65.38;100662.66;4996228;28;1208;-55
2021/05/03 07:33:25;;;;;;;;;;;;;;;19.18;65.39;100658.88;4996072;28;1061;-55
2021/05/03 07:35:51;;;;;;;;;;;;;;;19.13;65.43;100658.44;4996404;28;979;-55
2021/05/03 07:38:18;;;;;;;;;;;;;;;19.16;65.63;100659.97;4996026;28;1262;-55
2021/05/03 07:40:44;;;;;;;;;;;;;;;19.13;65.22;100660.28;4996304;28;1910;-55
2021/05/03 07:43:10;;;;;;;;;;;;;;;19.14;65.61;100661.94;4995959;28;1135;-55
2021/05/03 07:45:36;;;;;;;;;;;;;;;19.15;65.63;100663.66;4996254;28;992;-55
2021/05/03 07:48:02;;;;;;;;;;;;;;;19.16;65.57;100659.97;4995942;28;1068;-55
2021/05/03 07:50:28;;;;;;;;;;;;;;;19.16;65.53;100654.63;4995878;28;1036;-55
2021/05/03 07:52:55;;;;;;;;;;;;;;;19.17;65.34;100667.03;4996126;28;1075;-55
2021/05/03 07:55:22;;;;;;;;;;;;;;;19.16;65.40;100670.69;4995788;28;1071;-55
2021/05/03 07:57:48;;;;;;;;;;;;;;;19.13;65.37;100663.78;4995741;28;1048;-55
2021/05/03 08:00:14;;;;;;;;;;;;;;;19.15;65.26;100674.38;4995948;28;1902;-56
2021/05/03 08:02:40;;;;;;;;;;;;;;;19.14;65.33;100657.47;4995914;28;1476;-55
2021/05/03 08:05:07;;;;;;;;;;;;;;;19.11;65.47;100660.41;4995619;28;1222;-55
2021/05/03 08:07:33;;;;;;;;;;;;;;;19.13;65.45;100661.13;4995748;28;1031;-56
2021/05/03 08:09:59;;;;;;;;;;;;;;;19.18;65.31;100674.09;4995812;28;983;-56
2021/05/03 08:12:28;;;;;;;;;;;;;;;19.16;65.34;100676.94;4995350;28;1892;-55
2021/05/03 08:14:54;;;;;;;;;;;;;;;19.12;65.52;100663.91;4995382;28;1072;-55
2021/05/03 08:17:20;;;;;;;;;;;;;;;19.14;65.57;100657.47;4995871;28;1020;-56
2021/05/03 08:19:46;;;;;;;;;;;;;;;19.12;65.56;100663.91;4995679;28;988;-56
2021/05/03 08:22:13;;;;;;;;;;;;;;;19.13;65.98;100662.94;4995662;28;1902;-55
2021/05/03 08:24:39;;;;;;;;;;;;;;;19.17;65.58;100661.69;4995606;28;951;-55
2021/05/03 08:27:06;;;;;;;;;;;;;;;19.14;65.21;100659.28;4995610;28;1059;-56
2021/05/03 08:29:33;;;;;;;;;;;;;;;19.16;65.48;100665.34;4995308;28;1107;-55
2021/05/03 08:32:00;;;;;;;;;;;;;;;19.16;65.42;100657.28;4995246;28;1060;-56
2021/05/03 08:34:26;;;;;;;;;;;;;;;19.16;65.35;100663.53;4995521;28;1035;-55
2021/05/03 08:36:54;;;;;;;;;;;;;;;19.16;65.64;100655.50;4995579;28;988;-55
2021/05/03 08:39:21;;;;;;;;;;;;;;;19.15;65.70;100658.28;4995589;28;1054;-55
2021/05/03 08:41:47;;;;;;;;;;;;;;;19.15;65.39;100658.28;4995074;28;1906;-55
2021/05/03 08:44:13;;;;;;;;;;;;;;;19.13;65.51;100647.72;4995175;28;1037;-55
2021/05/03 08:46:42;;;;;;;;;;;;;;;19.15;65.54;100658.28;4995469;28;1036;-55
2021/05/03 08:49:16;;;;;;;;;;;;;;;19.12;65.49;100642.47;4995145;28;1071;-56
2021/05/03 08:51:46;;;;;;;;;;;;;;;19.13;65.51;100649.56;4995411;28;996;-55
2021/05/03 08:54:18;;;;;;;;;;;;;;;19.12;65.47;100648.72;4995408;28;975;-56
2021/05/03 08:56:44;;;;;;;;;;;;;;;19.13;65.35;100652.22;4995361;28;1004;-55
2021/05/03 08:59:11;;;;;;;;;;;;;;;19.16;65.68;100651.94;4995048;28;1036;-55
2021/05/03 09:01:37;;;;;;;;;;;;;;;19.14;65.52;100659.28;4994943;28;1907;-56
2021/05/03 09:04:05;;;;;;;;;;;;;;;19.13;65.70;100645.03;4994940;28;1458;-56
2021/05/03 09:06:31;;;;;;;;;;;;;;;19.13;65.50;100658.44;4995233;28;1039;-55
2021/05/03 09:09:01;;;;;;;;;;;;;;;19.09;65.91;100659.69;4995031;28;1111;-55
2021/05/03 09:11:27;;;;;;;;;;;;;;;19.14;65.62;100667.31;4994906;28;1171;-56
2021/05/03 09:14:05;;;;;;;;;;;;;;;19.14;65.41;100667.31;4995209;28;1071;-56
2021/05/03 09:16:32;;;;;;;;;;;;;;;19.15;65.70;100675.22;4994878;28;1032;-55
2021/05/03 09:19:00;;;;;;;;;;;;;;;19.12;65.85;100669.28;4995136;28;1046;-56
2021/05/03 09:21:30;;;;;;;;;;;;;;;19.08;65.62;100679.47;4994754;28;1972;-56
2021/05/03 09:24:00;;;;;;;;;;;;;;;19.10;65.64;100680.16;4995166;28;994;-56
2021/05/03 09:26:33;;;;;;;;;;;;;;;19.11;65.60;100686.38;4994814;28;1056;-55
2021/05/03 09:28:59;;;;;;;;;;;;;;;19.10;65.21;100692.69;4997853;28;932;-55
2021/05/03 09:31:25;;;;;;;;;;;;;;;19.10;65.78;100687.34;4998710;28;984;-56
2021/05/03 09:33:51;;;;;;;;;;;;;;;19.11;65.74;100678.31;4998438;28;1036;-56
2021/05/03 09:36:21;;;;;;;;;;;;;;;19.12;65.51;100690.72;4998603;28;1015;-55
2021/05/03 09:38:48;;;;;;;;;;;;;;;19.11;65.67;100689.03;4998310;28;1040;-56
2021/05/03 09:41:16;;;;;;;;;;;;;;;19.10;65.68;100682.84;4998347;28;1915;-55
2021/05/03 09:43:42;;;;;;;;;;;;;;;19.10;65.71;100684.66;4998173;28;1059;-55
2021/05/03 09:46:28;;;;;;;;;;;;;;;19.09;65.84;100691.84;4998426;28;1078;-56
2021/05/03 09:48:54;;;;;;;;;;;;;;;19.09;65.77;100705.25;4998135;28;1067;-56
2021/05/03 09:51:41;;;;;;;;;;;;;;;19.07;65.83;100689.31;4998079;28;1055;-55
2021/05/03 09:54:10;;;;;;;;;;;;;;;19.07;65.81;100702.72;4993290;28;1366;-56
2021/05/03 09:56:45;;;;;;;;;;;;;;;19.11;65.86;100695.25;4998275;28;1058;-55
2021/05/03 09:59:24;;;;;;;;;;;;;;;19.09;66.03;100724.03;4998200;28;1008;-55
2021/05/03 10:01:59;;;;;;;;;;;;;;;19.07;66.07;100689.31;4997766;28;1910;-56
2021/05/03 10:04:25;;;;;;;;;;;;;;;19.06;66.04;100698.34;4998198;28;995;-55
2021/05/03 10:06:51;;;;;;;;;;;;;;;19.04;66.11;100694.13;4998063;28;999;-56
2021/05/03 10:09:17;;;;;;;;;;;;;;;19.05;65.85;100675.19;4997754;28;1092;-56
2021/05/03 10:11:44;;;;;;;;;;;;;;;19.08;65.78;100680.28;4997615;28;1111;-56
2021/05/03 10:14:10;;;;;;;;;;;;;;;19.05;65.87;100674.34;4997687;28;1060;-56
2021/05/03 10:16:37;;;;;;;;;;;;;;;19.06;65.69;100670.72;4997688;28;1100;-55
2021/05/03 10:19:03;;;;;;;;;;;;;;;19.07;65.91;100678.59;4997475;28;1036;-55
2021/05/03 10:21:29;;;;;;;;;;;;;;;19.08;66.03;100676.78;4997250;28;1981;-55
2021/05/03 10:23:56;;;;;;;;;;;;;;;19.08;65.81;100664.22;4997475;28;1084;-56
2021/05/03 10:26:25;;;;;;;;;;;;;;;19.05;65.98;100667.16;4997721;28;1027;-55
2021/05/03 10:28:52;;;;;;;;;;;;;;;19.07;66.01;100673.22;4997661;28;1050;-56
2021/05/03 10:31:19;;;;;;;;;;;;;;;19.05;65.78;100680.56;4997619;28;1019;-55
2021/05/03 10:33:45;;;;;;;;;;;;;;;19.05;65.98;100672.53;4997238;28;1036;-55
2021/05/03 10:36:30;;;;;;;;;;;;;;;19.06;65.67;100668.88;4997610;28;1082;-55
2021/05/03 10:38:56;;;;;;;;;;;;;;;19.07;66.01;100673.22;4997370;28;1050;-56
2021/05/03 10:41:23;;;;;;;;;;;;;;;19.08;65.98;100666.91;4997085;28;1895;-55
2021/05/03 10:43:50;;;;;;;;;;;;;;;19.07;65.88;100675.91;4997448;28;971;-56
2021/05/03 10:49:32;;;;;;;;;;;;;;;19.09;66.01;100665.06;4997252;28;802;-55
2021/05/03 10:52:00;;;;;;;;;;;;;;;19.10;65.79;100674.81;4997287;28;980;-55
2021/05/03 10:54:46;;;;;;;;;;;;;;;19.10;66.07;100661.41;4997228;28;1070;-56
2021/05/03 10:57:46;;;;;;;;;;;;;;;19.11;66.15;100670.28;4997225;28;1004;-56
2021/05/03 11:00:30;;;;;;;;;;;;;;;19.12;65.63;100674.66;4997096;28;1055;-55
2021/05/03 11:02:56;;;;;;;;;;;;;;;19.10;65.80;100671.25;4996923;28;1346;-56
2021/05/03 11:05:23;;;;;;;;;;;;;;;19.13;66.03;100679.03;4996758;28;1056;-55
2021/05/03 11:08:09;;;;;;;;;;;;;;;19.11;65.88;100679.16;4996916;28;1102;-56
2021/05/03 11:10:53;;;;;;;;;;;;;;;19.12;65.77;100677.31;4996481;28;1036;-55
2021/05/03 11:13:38;;;;;;;;;;;;;;;19.11;65.91;100678.31;4996005;28;2002;-56
2021/05/03 11:16:19;;;;;;;;;;;;;;;19.11;65.73;100675.66;4996134;28;1035;-56
2021/05/03 11:18:46;;;;;;;;;;;;;;;19.11;65.97;100689.03;4996082;28;1262;-55
2021/05/03 11:21:15;;;;;;;;;;;;;;;19.16;66.10;100681.41;4996798;28;1907;-56
2021/05/03 11:23:41;;;;;;;;;;;;;;;19.13;65.91;100669.16;4996747;28;995;-55
2021/05/03 11:26:29;;;;;;;;;;;;;;;19.16;66.16;100663.53;4996295;28;1031;-56
2021/05/03 11:29:04;;;;;;;;;;;;;;;19.16;65.95;100676.06;4996627;28;1054;-55
2021/05/03 11:31:31;;;;;;;;;;;;;;;19.15;65.74;100680.59;4996484;28;983;-56
2021/05/03 11:34:03;;;;;;;;;;;;;;;19.16;65.73;100682.28;4996222;28;1035;-55
2021/05/03 11:36:33;;;;;;;;;;;;;;;19.15;65.78;100669.03;4996100;28;1099;-56
2021/05/03 11:39:05;;;;;;;;;;;;;;;19.19;65.92;100692.72;4996382;28;980;-55
2021/05/03 11:41:45;;;;;;;;;;;;;;;19.17;65.92;100680.44;4996289;28;1971;-56
2021/05/03 11:44:25;;;;;;;;;;;;;;;19.14;65.80;100683.41;4996227;28;1011;-56
2021/05/03 11:46:51;;;;;;;;;;;;;;;19.11;66.05;100663.09;4996253;28;1031;-56
2021/05/03 11:49:19;;;;;;;;;;;;;;;19.06;66.05;100671.56;4995935;28;1063;-55
2021/05/03 11:51:46;;;;;;;;;;;;;;;19.13;66.09;100668.31;4995486;28;1242;-56
2021/05/03 11:54:31;;;;;;;;;;;;;;;19.10;66.07;100671.25;4996061;28;907;-55
2021/05/03 11:56:58;;;;;;;;;;;;;;;19.10;66.37;100682.84;4996102;28;1883;-55
2021/05/03 11:59:24;;;;;;;;;;;;;;;19.05;66.07;100669.84;4995760;28;1104;-55
2021/05/03 12:02:00;;;;;;;;;;;;;;;19.07;66.07;100675.91;4995599;28;1979;-55
2021/05/03 12:04:34;;;;;;;;;;;;;;;19.08;66.11;100669.56;4995934;28;1864;-55
2021/05/03 12:07:09;;;;;;;;;;;;;;;19.08;65.98;100666.91;4995622;28;1064;-56
2021/05/03 12:09:35;;;;;;;;;;;;;;;19.10;65.94;100665.91;4995609;28;1045;-55
2021/05/03 12:12:03;;;;;;;;;;;;;;;19.15;66.14;100669.03;4995263;28;1168;-55
2021/05/03 12:14:45;;;;;;;;;;;;;;;19.10;65.94;100644.44;4995604;28;1040;-55
2021/05/03 12:17:19;;;;;;;;;;;;;;;19.12;65.99;100659.44;4995806;28;1062;-56
2021/05/03 12:19:47;;;;;;;;;;;;;;;19.10;66.12;100656.03;4995684;28;1077;-55
2021/05/03 12:22:13;;;;;;;;;;;;;;;19.11;65.87;100647.00;4995302;28;1906;-55
2021/05/03 12:24:41;;;;;;;;;;;;;;;19.14;66.03;100644.06;4995472;28;1152;-55
2021/05/03 12:27:07;;;;;;;;;;;;;;;19.12;66.40;100634.44;4995686;28;1003;-55
2021/05/03 12:29:34;;;;;;;;;;;;;;;19.13;66.05;100639.66;4995529;28;2009;-55
2021/05/03 12:32:00;;;;;;;;;;;;;;;19.14;66.19;100652.09;4995474;28;979;-56
2021/05/03 12:34:26;;;;;;;;;;;;;;;19.13;66.18;100644.19;4995627;28;1063;-56
2021/05/03 12:37:03;;;;;;;;;;;;;;;19.16;66.07;100659.97;4995504;28;1003;-55
2021/05/03 12:39:29;;;;;;;;;;;;;;;19.16;66.14;100649.25;4995464;28;1065;-55
2021/05/03 12:41:55;;;;;;;;;;;;;;;19.16;65.92;100662.66;4995434;28;1906;-55
2021/05/03 12:44:25;;;;;;;;;;;;;;;19.13;65.91;100654.91;4995170;28;1036;-55
2021/05/03 12:46:51;;;;;;;;;;;;;;;19.14;65.95;100667.31;4995323;28;1293;-56
2021/05/03 12:49:25;;;;;;;;;;;;;;;19.13;66.44;100649.56;4995120;28;1124;-56
2021/05/03 12:52:00;;;;;;;;;;;;;;;19.11;66.01;100668.44;4995412;28;1012;-55
2021/05/03 12:54:40;;;;;;;;;;;;;;;19.11;66.25;100671.13;4995112;28;1115;-55
2021/05/03 12:57:10;;;;;;;;;;;;;;;19.11;66.21;100679.16;4995409;28;1063;-55
2021/05/03 12:59:37;;;;;;;;;;;;;;;19.15;66.12;100680.59;4995052;28;1016;-54
2021/05/03 13:02:16;;;;;;;;;;;;;;;19.12;66.04;100685.38;4995354;28;1910;-55
2021/05/03 13:04:48;;;;;;;;;;;;;;;19.13;66.21;100668.31;4999337;28;1003;-56